createdAt,value
2019-02-25T00:01:06.274Z,9.62
2019-02-25T00:03:32.924Z,9.57
2019-02-25T00:05:59.572Z,9.55
2019-02-25T00:08:26.253Z,9.55
2019-02-25T00:10:52.979Z,9.56
2019-02-25T00:13:19.638Z,9.54
2019-02-25T00:15:46.332Z,9.52
2019-02-25T00:18:12.993Z,9.54
2019-02-25T00:20:39.653Z,9.54
2019-02-25T00:23:06.326Z,9.53
2019-02-25T00:25:32.971Z,9.54
2019-02-25T00:27:59.638Z,9.57
2019-02-25T00:30:26.288Z,9.56
2019-02-25T00:32:52.987Z,9.54
2019-02-25T00:35:19.625Z,9.54
2019-02-25T00:37:46.291Z,9.57
2019-02-25T00:40:12.956Z,9.57
2019-02-25T00:42:39.621Z,9.56
2019-02-25T00:45:06.267Z,9.56
2019-02-25T00:47:32.910Z,9.55
2019-02-25T00:49:59.588Z,9.53
2019-02-25T00:52:26.256Z,9.51
2019-02-25T00:54:52.915Z,9.53
2019-02-25T00:57:19.588Z,9.51
2019-02-25T00:59:46.244Z,9.50
2019-02-25T01:02:12.921Z,9.50
2019-02-25T01:04:39.625Z,9.51
2019-02-25T01:07:06.320Z,9.57
2019-02-25T01:09:32.989Z,9.78
2019-02-25T01:11:59.650Z,9.84
2019-02-25T01:14:26.317Z,9.73
2019-02-25T01:16:52.989Z,9.66
2019-02-25T01:19:19.638Z,9.61
2019-02-25T01:21:46.303Z,9.52
2019-02-25T01:24:12.975Z,9.49
2019-02-25T01:26:39.619Z,9.46
2019-02-25T01:29:06.278Z,9.45
2019-02-25T01:31:32.923Z,9.40
2019-02-25T01:33:59.628Z,9.39
2019-02-25T01:36:26.293Z,9.39
2019-02-25T01:38:52.946Z,9.42
2019-02-25T01:41:19.670Z,9.40
2019-02-25T01:43:46.310Z,9.38
2019-02-25T01:46:13.021Z,9.38
2019-02-25T01:48:39.678Z,9.39
2019-02-25T01:51:06.342Z,9.38
2019-02-25T01:53:32.997Z,9.38
2019-02-25T01:55:59.662Z,9.36
2019-02-25T01:58:26.306Z,9.38
2019-02-25T02:00:52.958Z,9.37
2019-02-25T02:03:19.646Z,9.37
2019-02-25T02:05:46.289Z,9.37
2019-02-25T02:08:13.019Z,9.35
2019-02-25T02:10:39.702Z,9.36
2019-02-25T02:13:14.032Z,9.37
2019-02-25T02:15:33.017Z,9.33
2019-02-25T02:17:59.679Z,9.33
2019-02-25T02:20:26.355Z,9.33
2019-02-25T02:22:53.012Z,9.31
2019-02-25T02:25:19.688Z,9.30
2019-02-25T02:27:46.345Z,9.29
2019-02-25T02:30:13.009Z,9.29
2019-02-25T02:32:39.697Z,9.30
2019-02-25T02:35:06.368Z,9.28
2019-02-25T02:37:33.051Z,9.28
2019-02-25T02:39:59.700Z,9.31
2019-02-25T02:42:26.346Z,9.29
2019-02-25T02:44:53.011Z,9.27
2019-02-25T02:47:19.654Z,9.25
2019-02-25T02:49:46.364Z,9.28
2019-02-25T02:52:13.026Z,9.19
2019-02-25T02:54:39.672Z,9.32
2019-02-25T02:57:06.409Z,9.31
2019-02-25T02:59:33.079Z,9.31
2019-02-25T03:01:59.745Z,9.30
2019-02-25T03:04:26.407Z,9.27
2019-02-25T03:06:53.059Z,9.25
2019-02-25T03:09:19.720Z,9.21
2019-02-25T03:11:46.412Z,9.21
2019-02-25T03:14:13.018Z,9.20
2019-02-25T03:16:39.802Z,9.19
2019-02-25T03:19:06.553Z,9.19
2019-02-25T03:21:33.223Z,9.21
2019-02-25T03:23:59.916Z,9.19
2019-02-25T03:26:26.613Z,9.20
2019-02-25T03:28:53.252Z,9.21
2019-02-25T03:31:19.916Z,9.21
2019-02-25T03:33:46.570Z,9.21
2019-02-25T03:36:13.210Z,9.22
2019-02-25T03:38:40.044Z,9.21
2019-02-25T03:41:06.744Z,9.22
2019-02-25T03:43:33.436Z,9.21
2019-02-25T03:46:00.087Z,9.21
2019-02-25T03:48:26.757Z,9.19
2019-02-25T03:50:53.487Z,9.19
2019-02-25T03:53:20.145Z,9.17
2019-02-25T03:55:46.783Z,9.17
2019-02-25T03:58:13.486Z,9.17
2019-02-25T04:00:40.144Z,9.19
2019-02-25T04:03:06.840Z,9.16
2019-02-25T04:05:33.491Z,9.15
2019-02-25T04:08:00.141Z,9.14
2019-02-25T04:10:26.789Z,9.11
2019-02-25T04:12:53.443Z,9.71
2019-02-25T04:15:20.107Z,9.74
2019-02-25T04:17:46.810Z,9.68
2019-02-25T04:20:13.510Z,9.33
2019-02-25T04:22:40.146Z,9.08
2019-02-25T04:25:06.808Z,8.98
2019-02-25T04:27:33.522Z,8.93
2019-02-25T04:30:00.276Z,8.81
2019-02-25T04:32:26.859Z,8.89
2019-02-25T04:34:53.553Z,8.89
2019-02-25T04:37:20.245Z,8.92
2019-02-25T04:39:46.916Z,9.03
2019-02-25T04:42:13.566Z,9.00
2019-02-25T04:44:40.213Z,9.00
2019-02-25T04:47:06.871Z,8.95
2019-02-25T04:49:33.525Z,8.94
2019-02-25T04:52:00.216Z,8.90
2019-02-25T04:54:26.857Z,8.88
2019-02-25T04:56:53.529Z,8.89
2019-02-25T04:59:20.242Z,11.78
2019-02-25T05:01:46.898Z,9.00
2019-02-25T05:04:13.562Z,9.11
2019-02-25T05:06:40.258Z,9.23
2019-02-25T05:09:06.922Z,9.13
2019-02-25T05:11:33.570Z,9.11
2019-02-25T05:14:00.253Z,9.18
2019-02-25T05:16:26.904Z,9.09
2019-02-25T05:18:53.572Z,9.39
2019-02-25T05:21:20.223Z,9.50
2019-02-25T05:23:46.909Z,9.42
2019-02-25T05:26:13.546Z,9.44
2019-02-25T05:28:40.205Z,9.54
2019-02-25T05:31:06.910Z,9.46
2019-02-25T05:33:33.628Z,9.59
2019-02-25T05:36:00.291Z,9.55
2019-02-25T05:38:26.944Z,9.84
2019-02-25T05:40:53.746Z,9.59
2019-02-25T05:43:20.395Z,9.40
2019-02-25T05:45:47.047Z,9.32
2019-02-25T05:48:13.738Z,9.59
2019-02-25T05:50:40.383Z,9.72
2019-02-25T05:53:07.082Z,9.30
2019-02-25T05:55:33.743Z,9.24
2019-02-25T05:58:00.409Z,9.16
2019-02-25T06:00:27.053Z,8.92
2019-02-25T06:02:53.716Z,9.51
2019-02-25T06:05:20.403Z,9.50
2019-02-25T06:07:47.050Z,9.49
2019-02-25T06:10:13.717Z,9.30
2019-02-25T06:12:40.383Z,9.55
2019-02-25T06:15:07.060Z,9.47
2019-02-25T06:17:33.796Z,9.52
2019-02-25T06:20:00.408Z,9.67
2019-02-25T06:22:27.112Z,9.50
2019-02-25T06:24:53.770Z,9.34
2019-02-25T06:27:30.293Z,9.52
2019-02-25T06:29:47.165Z,9.65
2019-02-25T06:32:13.825Z,9.54
2019-02-25T06:34:40.518Z,9.29
2019-02-25T06:37:07.206Z,9.27
2019-02-25T06:39:33.896Z,9.19
2019-02-25T06:42:00.551Z,9.27
2019-02-25T06:44:27.458Z,9.34
2019-02-25T06:46:54.165Z,9.23
2019-02-25T06:49:29.663Z,9.35
2019-02-25T06:51:56.408Z,9.34
2019-02-25T06:54:23.099Z,9.24
2019-02-25T06:56:49.738Z,9.51
2019-02-25T06:59:16.506Z,9.55
2019-02-25T07:01:43.216Z,9.70
2019-02-25T07:04:09.875Z,9.62
2019-02-25T07:06:36.594Z,9.70
2019-02-25T07:09:03.234Z,9.76
2019-02-25T07:11:29.914Z,9.66
2019-02-25T07:13:56.625Z,9.64
2019-02-25T07:16:23.284Z,9.55
2019-02-25T07:18:50.009Z,9.71
2019-02-25T07:21:16.696Z,9.52
2019-02-25T07:23:43.354Z,9.60
2019-02-25T07:26:10.135Z,9.60
2019-02-25T07:28:36.802Z,9.51
2019-02-25T07:31:03.606Z,9.49
2019-02-25T07:33:30.287Z,9.51
2019-02-25T07:35:56.960Z,9.48
2019-02-25T07:38:23.632Z,9.49
2019-02-25T07:40:50.310Z,9.43
2019-02-25T07:43:17.109Z,9.41
2019-02-25T07:45:43.851Z,9.64
2019-02-25T07:48:10.573Z,9.54
2019-02-25T07:50:37.246Z,9.59
2019-02-25T07:53:03.932Z,9.37
2019-02-25T07:55:30.632Z,9.50
2019-02-25T07:57:57.302Z,9.75
2019-02-25T08:00:24.097Z,10.03
2019-02-25T08:02:50.720Z,9.93
2019-02-25T08:05:17.428Z,9.88
2019-02-25T08:07:44.106Z,9.87
2019-02-25T08:10:10.838Z,9.83
2019-02-25T08:12:37.522Z,9.84
2019-02-25T08:15:04.247Z,9.97
2019-02-25T08:17:30.879Z,10.01
2019-02-25T08:19:57.537Z,9.97
2019-02-25T08:22:24.218Z,10.08
2019-02-25T08:24:50.929Z,10.10
2019-02-25T08:27:17.596Z,10.29
2019-02-25T08:29:44.317Z,10.25
2019-02-25T08:32:10.987Z,10.11
2019-02-25T08:34:37.640Z,10.09
2019-02-25T08:37:04.398Z,10.32
2019-02-25T08:39:31.032Z,10.35
2019-02-25T08:41:57.767Z,10.38
2019-02-25T08:44:26.073Z,10.66
2019-02-25T08:46:52.789Z,10.45
2019-02-25T08:49:19.457Z,10.62
2019-02-25T08:51:46.231Z,10.59
2019-02-25T08:54:12.503Z,10.30
2019-02-25T08:56:39.171Z,10.43
2019-02-25T08:59:05.881Z,10.59
2019-02-25T09:01:32.617Z,10.65
2019-02-25T09:03:59.344Z,10.68
2019-02-25T09:06:26.387Z,10.50
2019-02-25T09:08:53.125Z,10.51
2019-02-25T09:11:19.861Z,10.78
2019-02-25T09:13:46.502Z,10.79
2019-02-25T09:16:13.226Z,10.71
2019-02-25T09:18:39.952Z,10.52
2019-02-25T09:21:08.113Z,10.84
2019-02-25T09:23:33.362Z,10.90
2019-02-25T09:26:00.097Z,10.87
2019-02-25T09:28:26.839Z,11.29
2019-02-25T09:30:55.567Z,11.41
2019-02-25T09:33:22.269Z,11.36
2019-02-25T09:35:48.978Z,10.99
2019-02-25T09:38:15.713Z,10.92
2019-02-25T09:40:42.400Z,10.90
2019-02-25T09:43:09.048Z,10.50
2019-02-25T09:45:35.727Z,10.78
2019-02-25T09:48:02.403Z,10.66
2019-02-25T09:50:29.089Z,10.61
2019-02-25T09:52:55.750Z,10.75
2019-02-25T09:55:23.690Z,10.44
2019-02-25T09:57:49.199Z,10.61
2019-02-25T10:00:15.866Z,10.74
2019-02-25T10:02:42.612Z,10.50
2019-02-25T10:05:09.274Z,10.46
2019-02-25T10:07:36.093Z,10.57
2019-02-25T10:10:02.764Z,10.59
2019-02-25T10:12:29.449Z,10.16
2019-02-25T10:14:56.098Z,9.99
2019-02-25T10:17:24.029Z,10.28
2019-02-25T10:19:49.487Z,10.57
2019-02-25T10:22:16.133Z,10.29
2019-02-25T10:24:42.832Z,10.60
2019-02-25T10:27:09.506Z,10.21
2019-02-25T10:29:36.273Z,9.90
2019-02-25T10:32:04.858Z,10.39
2019-02-25T10:34:30.023Z,10.61
2019-02-25T10:36:56.703Z,10.34
2019-02-25T10:39:23.348Z,9.95
2019-02-25T10:41:51.155Z,10.19
2019-02-25T10:44:16.762Z,10.40
2019-02-25T10:46:44.895Z,10.45
2019-02-25T10:49:11.574Z,10.45
2019-02-25T10:51:38.784Z,10.51
2019-02-25T10:54:03.659Z,10.50
2019-02-25T10:56:30.355Z,10.69
2019-02-25T10:58:57.699Z,10.37
2019-02-25T11:01:24.633Z,10.28
2019-02-25T11:03:52.029Z,10.43
2019-02-25T11:06:17.112Z,10.46
2019-02-25T11:08:45.644Z,10.59
2019-02-25T11:11:10.483Z,10.31
2019-02-25T11:13:37.190Z,10.38
2019-02-25T11:16:04.009Z,10.23
2019-02-25T11:18:30.679Z,10.08
2019-02-25T11:20:58.944Z,10.19
2019-02-25T11:23:24.072Z,9.85
2019-02-25T11:25:51.505Z,10.64
2019-02-25T11:28:25.512Z,10.40
2019-02-25T11:30:45.053Z,10.42
2019-02-25T11:33:10.792Z,10.45
2019-02-25T11:35:39.378Z,10.47
2019-02-25T11:38:04.445Z,10.69
2019-02-25T11:40:33.495Z,10.60
2019-02-25T11:42:57.957Z,10.55
2019-02-25T11:45:24.669Z,10.67
2019-02-25T11:47:51.328Z,10.93
2019-02-25T11:50:18.064Z,11.18
2019-02-25T11:52:44.810Z,10.91
2019-02-25T11:55:12.896Z,11.06
2019-02-25T11:57:38.183Z,11.14
2019-02-25T12:00:04.845Z,10.88
2019-02-25T12:02:31.620Z,11.07
2019-02-25T12:04:58.277Z,11.28
2019-02-25T12:07:25.039Z,11.16
2019-02-25T12:09:51.717Z,11.08
2019-02-25T12:12:18.420Z,11.08
2019-02-25T12:14:45.086Z,11.10
2019-02-25T12:17:11.850Z,11.20
2019-02-25T12:19:38.518Z,11.09
2019-02-25T12:22:05.183Z,11.09
2019-02-25T12:24:31.879Z,11.03
2019-02-25T12:26:58.535Z,11.00
2019-02-25T12:29:25.280Z,11.04
2019-02-25T12:31:51.944Z,11.05
2019-02-25T12:34:18.603Z,11.10
2019-02-25T12:36:45.310Z,11.17
2019-02-25T12:39:12.020Z,11.10
2019-02-25T12:41:38.745Z,11.01
2019-02-25T12:44:05.377Z,10.94
2019-02-25T12:46:32.045Z,11.02
2019-02-25T12:48:58.715Z,11.00
2019-02-25T12:51:25.465Z,11.13
2019-02-25T12:53:52.152Z,11.27
2019-02-25T12:56:18.828Z,11.04
2019-02-25T12:58:45.494Z,11.43
2019-02-25T13:01:12.213Z,11.50
2019-02-25T13:03:38.946Z,11.33
2019-02-25T13:06:05.633Z,11.33
2019-02-25T13:08:32.303Z,11.34
2019-02-25T13:10:58.966Z,11.73
2019-02-25T13:13:25.623Z,11.78
2019-02-25T13:15:52.301Z,11.67
2019-02-25T13:18:19.468Z,11.65
2019-02-25T13:20:46.105Z,11.89
2019-02-25T13:23:12.775Z,11.72
2019-02-25T13:25:39.423Z,11.86
2019-02-25T13:28:06.092Z,11.80
2019-02-25T13:30:32.777Z,11.85
2019-02-25T13:32:59.526Z,11.92
2019-02-25T13:35:26.209Z,11.83
2019-02-25T13:37:52.894Z,11.88
2019-02-25T13:40:19.571Z,11.82
2019-02-25T13:42:46.402Z,11.79
2019-02-25T13:45:13.048Z,11.95
2019-02-25T13:47:39.896Z,11.92
2019-02-25T13:50:06.705Z,11.81
2019-02-25T13:52:33.369Z,11.78
2019-02-25T13:55:00.095Z,11.81
2019-02-25T13:57:26.775Z,11.94
2019-02-25T13:59:53.454Z,11.97
2019-02-25T14:02:20.126Z,12.19
2019-02-25T14:04:47.011Z,12.03
2019-02-25T14:07:13.467Z,12.19
2019-02-25T14:09:40.291Z,12.17
2019-02-25T14:12:06.877Z,12.14
2019-02-25T14:14:34.625Z,12.22
2019-02-25T14:17:01.287Z,12.29
2019-02-25T14:19:27.955Z,12.16
2019-02-25T14:21:55.988Z,12.47
2019-02-25T14:24:21.291Z,12.34
2019-02-25T14:26:47.974Z,12.83
2019-02-25T14:29:14.621Z,12.42
2019-02-25T14:31:41.286Z,12.37
2019-02-25T14:34:07.953Z,12.38
2019-02-25T14:36:34.664Z,12.34
2019-02-25T14:39:02.220Z,12.50
2019-02-25T14:41:28.008Z,12.35
2019-02-25T14:43:56.143Z,12.65
2019-02-25T14:46:22.636Z,12.30
2019-02-25T14:48:48.024Z,12.40
2019-02-25T14:51:14.681Z,12.33
2019-02-25T14:53:42.296Z,12.48
2019-02-25T14:56:08.027Z,12.54
2019-02-25T14:58:36.168Z,12.53
2019-02-25T15:01:01.544Z,12.43
2019-02-25T15:03:29.141Z,12.46
2019-02-25T15:05:57.083Z,12.40
2019-02-25T15:08:24.105Z,12.38
2019-02-25T15:10:49.707Z,12.33
2019-02-25T15:13:16.476Z,12.38
2019-02-25T15:15:44.084Z,12.41
2019-02-25T15:18:09.822Z,12.34
2019-02-25T15:20:36.513Z,12.36
2019-02-25T15:23:03.162Z,12.32
2019-02-25T15:25:33.144Z,12.27
2019-02-25T15:27:56.515Z,12.26
2019-02-25T15:30:25.094Z,12.02
2019-02-25T15:32:55.656Z,12.17
2019-02-25T15:35:16.606Z,12.19
2019-02-25T15:37:44.795Z,12.15
2019-02-25T15:40:11.788Z,12.10
2019-02-25T15:42:38.481Z,12.17
2019-02-25T15:45:03.368Z,12.18
2019-02-25T15:47:30.037Z,12.17
2019-02-25T15:50:03.453Z,12.18
2019-02-25T15:52:27.584Z,12.15
2019-02-25T15:54:52.890Z,12.18
2019-02-25T15:57:20.607Z,12.17
2019-02-25T15:59:46.743Z,12.11
2019-02-25T16:02:14.274Z,12.08
2019-02-25T16:04:41.905Z,12.09
2019-02-25T16:07:08.392Z,12.07
2019-02-25T16:09:33.984Z,12.07
2019-02-25T16:12:00.971Z,12.00
2019-02-25T16:14:27.662Z,12.01
2019-02-25T16:16:53.529Z,12.01
2019-02-25T16:19:20.196Z,12.05
2019-02-25T16:21:46.851Z,12.02
2019-02-25T16:24:14.050Z,12.08
2019-02-25T16:26:40.605Z,12.05
2019-02-25T16:29:08.923Z,12.09
2019-02-25T16:31:35.342Z,12.13
2019-02-25T16:34:00.217Z,12.16
2019-02-25T16:36:28.308Z,12.05
2019-02-25T16:38:55.792Z,12.07
2019-02-25T16:41:27.065Z,12.04
2019-02-25T16:43:46.882Z,12.04
2019-02-25T16:46:15.824Z,12.11
2019-02-25T16:48:40.252Z,12.11
2019-02-25T16:51:07.927Z,12.08
2019-02-25T16:53:36.941Z,12.10
2019-02-25T16:56:00.302Z,12.07
2019-02-25T16:58:27.627Z,12.08
2019-02-25T17:00:56.219Z,12.11
2019-02-25T17:03:20.419Z,12.10
2019-02-25T17:05:47.802Z,12.13
2019-02-25T17:08:13.890Z,12.18
2019-02-25T17:10:40.512Z,12.20
2019-02-25T17:13:08.119Z,12.17
2019-02-25T17:15:33.925Z,12.21
2019-02-25T17:18:00.656Z,12.19
2019-02-25T17:20:28.022Z,12.24
2019-02-25T17:22:53.976Z,12.31
2019-02-25T17:25:20.638Z,12.31
2019-02-25T17:27:47.302Z,12.28
2019-02-25T17:30:15.270Z,12.64
2019-02-25T17:32:42.454Z,12.75
2019-02-25T17:35:07.495Z,12.56
2019-02-25T17:37:35.586Z,12.50
2019-02-25T17:40:05.806Z,12.41
2019-02-25T17:42:28.584Z,12.38
2019-02-25T17:44:55.660Z,12.35
2019-02-25T17:47:24.308Z,12.34
2019-02-25T17:49:47.494Z,12.35
2019-02-25T17:52:16.144Z,12.31
2019-02-25T17:54:40.838Z,12.30
2019-02-25T17:57:08.050Z,12.36
2019-02-25T17:59:34.194Z,12.32
2019-02-25T18:02:02.288Z,12.26
2019-02-25T18:04:28.314Z,12.32
2019-02-25T18:06:54.184Z,12.37
2019-02-25T18:09:22.209Z,12.40
2019-02-25T18:11:47.758Z,12.41
2019-02-25T18:14:15.295Z,12.49
2019-02-25T18:16:43.610Z,12.40
2019-02-25T18:19:09.194Z,12.41
2019-02-25T18:21:34.283Z,12.40
2019-02-25T18:24:00.953Z,12.41
2019-02-25T18:26:28.616Z,12.37
2019-02-25T18:28:54.284Z,12.37
2019-02-25T18:31:20.964Z,12.35
2019-02-25T18:33:48.614Z,12.37
2019-02-25T18:36:14.262Z,12.33
2019-02-25T18:38:40.912Z,12.33
2019-02-25T18:41:09.257Z,12.34
2019-02-25T18:43:34.258Z,12.36
2019-02-25T18:46:02.599Z,12.37
2019-02-25T18:48:27.634Z,12.34
2019-02-25T18:50:56.680Z,12.28
2019-02-25T18:53:21.240Z,12.28
2019-02-25T18:55:47.877Z,12.28
2019-02-25T18:58:15.938Z,12.19
2019-02-25T19:00:42.485Z,12.23
2019-02-25T19:03:07.643Z,12.22
2019-02-25T19:05:34.320Z,12.21
2019-02-25T19:08:01.031Z,12.22
2019-02-25T19:10:27.693Z,12.25
2019-02-25T19:12:55.959Z,12.19
2019-02-25T19:15:20.994Z,12.18
2019-02-25T19:17:48.463Z,12.20
2019-02-25T19:20:14.373Z,12.17
2019-02-25T19:22:41.803Z,12.19
2019-02-25T19:25:09.594Z,12.18
2019-02-25T19:27:35.845Z,12.15
2019-02-25T19:30:02.976Z,12.15
2019-02-25T19:32:27.811Z,12.15
2019-02-25T19:34:56.243Z,12.15
2019-02-25T19:37:21.227Z,12.24
2019-02-25T19:39:48.818Z,12.25
2019-02-25T19:42:15.467Z,12.21
2019-02-25T19:44:41.257Z,12.21
2019-02-25T19:47:09.742Z,12.18
2019-02-25T19:49:36.619Z,12.16
2019-02-25T19:52:01.254Z,12.10
2019-02-25T19:54:29.400Z,12.10
2019-02-25T19:56:56.173Z,12.08
2019-02-25T19:59:22.231Z,12.11
2019-02-25T20:01:47.912Z,12.08
2019-02-25T20:04:18.341Z,12.06
2019-02-25T20:06:44.484Z,12.06
2019-02-25T20:09:07.941Z,12.01
2019-02-25T20:11:34.582Z,12.07
2019-02-25T20:14:01.718Z,12.02
2019-02-25T20:16:29.810Z,12.03
2019-02-25T20:18:56.052Z,12.04
2019-02-25T20:21:22.541Z,12.05
2019-02-25T20:23:49.577Z,12.05
2019-02-25T20:26:15.590Z,12.08
2019-02-25T20:28:42.953Z,12.11
2019-02-25T20:31:08.385Z,12.09
2019-02-25T20:33:35.198Z,12.21
2019-02-25T20:36:03.012Z,12.19
2019-02-25T20:38:29.620Z,12.11
2019-02-25T20:40:55.352Z,12.05
2019-02-25T20:43:21.824Z,12.08
2019-02-25T20:45:48.230Z,12.06
2019-02-25T20:48:14.600Z,12.01
2019-02-25T20:50:41.251Z,12.01
2019-02-25T20:53:09.198Z,11.99
2019-02-25T20:55:34.606Z,12.00
2019-02-25T20:58:01.251Z,11.99
2019-02-25T21:00:27.912Z,12.00
2019-02-25T21:02:54.576Z,11.96
2019-02-25T21:05:22.765Z,11.96
2019-02-25T21:07:48.222Z,12.02
2019-02-25T21:10:14.556Z,12.01
2019-02-25T21:12:43.143Z,12.01
2019-02-25T21:15:07.869Z,12.00
2019-02-25T21:17:35.583Z,11.97
2019-02-25T21:20:02.924Z,12.05
2019-02-25T21:22:29.503Z,12.02
2019-02-25T21:24:55.895Z,12.04
2019-02-25T21:27:26.161Z,12.08
2019-02-25T21:29:47.947Z,11.98
2019-02-25T21:32:17.180Z,12.00
2019-02-25T21:34:41.344Z,11.90
2019-02-25T21:37:08.007Z,11.90
2019-02-25T21:39:36.530Z,11.87
2019-02-25T21:42:01.386Z,11.82
2019-02-25T21:44:29.036Z,11.82
2019-02-25T21:46:56.246Z,11.82
2019-02-25T21:49:25.082Z,11.78
2019-02-25T21:51:48.179Z,11.74
2019-02-25T21:54:14.792Z,11.66
2019-02-25T21:56:41.416Z,11.61
2019-02-25T21:59:08.753Z,11.58
2019-02-25T22:01:36.762Z,11.59
2019-02-25T22:04:01.460Z,11.55
2019-02-25T22:06:29.575Z,11.50
2019-02-25T22:08:56.794Z,11.52
2019-02-25T22:11:22.138Z,11.44
2019-02-25T22:13:48.103Z,11.46
2019-02-25T22:16:14.747Z,11.42
2019-02-25T22:18:41.413Z,11.42
2019-02-25T22:21:09.448Z,11.34
2019-02-25T22:23:35.498Z,11.30
2019-02-25T22:26:01.394Z,11.29
2019-02-25T22:28:28.873Z,11.30
2019-02-25T22:30:54.743Z,11.30
2019-02-25T22:33:27.406Z,11.28
2019-02-25T22:35:49.903Z,11.30
2019-02-25T22:38:14.815Z,11.27
2019-02-25T22:40:41.474Z,11.25
2019-02-25T22:43:09.872Z,11.29
2019-02-25T22:45:35.917Z,11.23
2019-02-25T22:48:01.544Z,11.21
2019-02-25T22:50:29.145Z,11.22
2019-02-25T22:52:58.269Z,11.19
2019-02-25T22:55:22.690Z,11.16
2019-02-25T22:57:50.932Z,11.15
2019-02-25T23:00:14.976Z,11.17
2019-02-25T23:02:43.472Z,11.16
2019-02-25T23:05:10.598Z,11.15
2019-02-25T23:07:38.810Z,11.17
2019-02-25T23:10:01.637Z,11.21
2019-02-25T23:12:29.410Z,11.19
2019-02-25T23:14:56.058Z,11.10
2019-02-25T23:17:24.591Z,11.09
2019-02-25T23:19:51.235Z,11.07
2019-02-25T23:22:17.900Z,11.04
2019-02-25T23:24:44.563Z,11.06
2019-02-25T23:27:11.291Z,10.97
2019-02-25T23:29:37.951Z,11.00
2019-02-25T23:32:04.599Z,11.03
2019-02-25T23:34:31.267Z,10.94
2019-02-25T23:36:57.970Z,10.95
2019-02-25T23:39:24.654Z,10.95
2019-02-25T23:41:51.352Z,10.94
2019-02-25T23:44:19.751Z,10.91
2019-02-25T23:46:44.630Z,10.89
2019-02-25T23:49:11.658Z,10.93
2019-02-25T23:51:39.522Z,10.90
2019-02-25T23:54:05.002Z,10.90
2019-02-25T23:56:31.847Z,10.88
2019-02-25T23:58:58.395Z,10.82
